sensor_id;sensor_type;location;lat;lon;timestamp;temperature;humidity
1602;DHT22;794;48.592;9.634;2023-06-14T00:00:45;10.60;1.00
1602;DHT22;794;48.592;9.634;2023-06-14T00:03:14;10.40;1.00
1602;DHT22;794;48.592;9.634;2023-06-14T00:05:43;10.30;1.00
1602;DHT22;794;48.592;9.634;2023-06-14T00:08:11;10.50;1.00
1602;DHT22;794;48.592;9.634;2023-06-14T00:10:40;10.30;1.00
1602;DHT22;794;48.592;9.634;2023-06-14T00:13:07;10.50;1.00
1602;DHT22;794;48.592;9.634;2023-06-14T00:15:35;10.30;1.00
1602;DHT22;794;48.592;9.634;2023-06-14T00:18:02;10.20;1.00
1602;DHT22;794;48.592;9.634;2023-06-14T00:20:30;10.20;1.00
1602;DHT22;794;48.592;9.634;2023-06-14T00:22:58;10.40;1.00
1602;DHT22;794;48.592;9.634;2023-06-14T00:25:25;10.30;1.00
1602;DHT22;794;48.592;9.634;2023-06-14T00:27:55;10.10;1.00
1602;DHT22;794;48.592;9.634;2023-06-14T00:30:22;10.20;1.00
1602;DHT22;794;48.592;9.634;2023-06-14T00:32:49;10.30;1.00
1602;DHT22;794;48.592;9.634;2023-06-14T00:35:17;10.20;1.00
1602;DHT22;794;48.592;9.634;2023-06-14T00:37:44;10.10;1.00
1602;DHT22;794;48.592;9.634;2023-06-14T00:40:11;9.90;1.00
1602;DHT22;794;48.592;9.634;2023-06-14T00:42:38;9.80;1.00
1602;DHT22;794;48.592;9.634;2023-06-14T00:45:07;9.80;1.00
1602;DHT22;794;48.592;9.634;2023-06-14T00:47:35;10.00;1.00
1602;DHT22;794;48.592;9.634;2023-06-14T00:50:06;9.90;1.00
1602;DHT22;794;48.592;9.634;2023-06-14T00:52:33;10.00;1.00
1602;DHT22;794;48.592;9.634;2023-06-14T00:55:01;9.80;1.00
1602;DHT22;794;48.592;9.634;2023-06-14T00:57:28;9.80;1.00
1602;DHT22;794;48.592;9.634;2023-06-14T00:59:56;9.90;1.00
1602;DHT22;794;48.592;9.634;2023-06-14T01:02:24;9.70;1.00
1602;DHT22;794;48.592;9.634;2023-06-14T01:04:52;9.80;1.00
1602;DHT22;794;48.592;9.634;2023-06-14T01:07:25;10.90;1.00
1602;DHT22;794;48.592;9.634;2023-06-14T01:10:12;9.80;1.00
1602;DHT22;794;48.592;9.634;2023-06-14T01:12:52;9.60;1.00
1602;DHT22;794;48.592;9.634;2023-06-14T01:15:23;9.80;1.00
1602;DHT22;794;48.592;9.634;2023-06-14T01:17:52;9.80;1.00
1602;DHT22;794;48.592;9.634;2023-06-14T01:20:22;9.80;1.00
1602;DHT22;794;48.592;9.634;2023-06-14T01:22:52;9.80;1.00
1602;DHT22;794;48.592;9.634;2023-06-14T01:25:19;10.00;1.00
1602;DHT22;794;48.592;9.634;2023-06-14T01:27:49;9.50;1.00
1602;DHT22;794;48.592;9.634;2023-06-14T01:30:17;9.60;1.00
1602;DHT22;794;48.592;9.634;2023-06-14T01:32:45;9.80;1.00
1602;DHT22;794;48.592;9.634;2023-06-14T01:35:12;9.70;1.00
1602;DHT22;794;48.592;9.634;2023-06-14T01:37:39;9.70;1.00
1602;DHT22;794;48.592;9.634;2023-06-14T01:40:10;9.90;1.00
1602;DHT22;794;48.592;9.634;2023-06-14T01:42:38;9.80;1.00
1602;DHT22;794;48.592;9.634;2023-06-14T01:45:06;10.20;1.00
1602;DHT22;794;48.592;9.634;2023-06-14T01:47:34;9.50;1.00
1602;DHT22;794;48.592;9.634;2023-06-14T01:50:02;9.50;1.00
1602;DHT22;794;48.592;9.634;2023-06-14T01:52:29;10.40;1.00
1602;DHT22;794;48.592;9.634;2023-06-14T01:54:56;9.40;1.00
1602;DHT22;794;48.592;9.634;2023-06-14T01:57:25;9.30;1.00
1602;DHT22;794;48.592;9.634;2023-06-14T01:59:53;10.80;1.00
1602;DHT22;794;48.592;9.634;2023-06-14T02:02:20;9.40;1.00
1602;DHT22;794;48.592;9.634;2023-06-14T02:04:47;9.60;1.00
1602;DHT22;794;48.592;9.634;2023-06-14T02:07:14;9.50;1.00
1602;DHT22;794;48.592;9.634;2023-06-14T02:09:41;9.20;1.00
1602;DHT22;794;48.592;9.634;2023-06-14T02:12:08;9.30;1.00
1602;DHT22;794;48.592;9.634;2023-06-14T02:14:37;9.10;1.00
1602;DHT22;794;48.592;9.634;2023-06-14T02:17:05;9.50;1.00
1602;DHT22;794;48.592;9.634;2023-06-14T02:19:32;9.10;1.00
1602;DHT22;794;48.592;9.634;2023-06-14T02:21:59;8.70;1.00
1602;DHT22;794;48.592;9.634;2023-06-14T02:24:41;9.30;1.00
1602;DHT22;794;48.592;9.634;2023-06-14T02:27:08;9.40;1.00
1602;DHT22;794;48.592;9.634;2023-06-14T02:29:37;9.40;1.00
1602;DHT22;794;48.592;9.634;2023-06-14T02:32:04;9.00;1.00
1602;DHT22;794;48.592;9.634;2023-06-14T02:34:32;9.20;1.00
1602;DHT22;794;48.592;9.634;2023-06-14T02:36:59;9.20;1.00
1602;DHT22;794;48.592;9.634;2023-06-14T02:39:28;9.50;1.00
1602;DHT22;794;48.592;9.634;2023-06-14T02:41:55;9.10;1.00
1602;DHT22;794;48.592;9.634;2023-06-14T02:44:24;9.30;1.00
1602;DHT22;794;48.592;9.634;2023-06-14T02:46:53;9.00;1.00
1602;DHT22;794;48.592;9.634;2023-06-14T02:49:21;9.30;1.00
1602;DHT22;794;48.592;9.634;2023-06-14T02:51:48;9.00;1.00
1602;DHT22;794;48.592;9.634;2023-06-14T02:54:15;9.20;1.00
1602;DHT22;794;48.592;9.634;2023-06-14T02:56:42;10.00;1.00
1602;DHT22;794;48.592;9.634;2023-06-14T02:59:09;9.20;1.00
1602;DHT22;794;48.592;9.634;2023-06-14T03:01:36;9.00;1.00
1602;DHT22;794;48.592;9.634;2023-06-14T03:04:08;9.30;1.00
1602;DHT22;794;48.592;9.634;2023-06-14T03:06:35;9.20;1.00
1602;DHT22;794;48.592;9.634;2023-06-14T03:09:02;8.80;1.00
1602;DHT22;794;48.592;9.634;2023-06-14T03:11:30;9.50;1.00
1602;DHT22;794;48.592;9.634;2023-06-14T03:13:57;8.80;1.00
1602;DHT22;794;48.592;9.634;2023-06-14T03:16:24;8.80;1.00
1602;DHT22;794;48.592;9.634;2023-06-14T03:18:54;9.60;1.00
1602;DHT22;794;48.592;9.634;2023-06-14T03:21:22;8.90;1.00
1602;DHT22;794;48.592;9.634;2023-06-14T03:23:50;9.10;1.00
1602;DHT22;794;48.592;9.634;2023-06-14T03:26:18;9.10;1.00
1602;DHT22;794;48.592;9.634;2023-06-14T03:28:45;8.90;1.00
1602;DHT22;794;48.592;9.634;2023-06-14T03:31:12;8.80;1.00
1602;DHT22;794;48.592;9.634;2023-06-14T03:33:39;9.20;1.00
1602;DHT22;794;48.592;9.634;2023-06-14T03:36:06;9.10;1.00
1602;DHT22;794;48.592;9.634;2023-06-14T03:38:35;9.50;1.00
1602;DHT22;794;48.592;9.634;2023-06-14T03:41:02;9.20;1.00
1602;DHT22;794;48.592;9.634;2023-06-14T03:43:29;9.70;1.00
1602;DHT22;794;48.592;9.634;2023-06-14T03:45:56;9.10;1.00
1602;DHT22;794;48.592;9.634;2023-06-14T03:48:23;9.30;1.00
1602;DHT22;794;48.592;9.634;2023-06-14T03:50:51;9.20;1.00
1602;DHT22;794;48.592;9.634;2023-06-14T03:53:17;9.00;1.00
1602;DHT22;794;48.592;9.634;2023-06-14T03:55:47;9.20;1.00
1602;DHT22;794;48.592;9.634;2023-06-14T03:58:15;9.00;1.00
1602;DHT22;794;48.592;9.634;2023-06-14T04:00:41;10.10;1.00
1602;DHT22;794;48.592;9.634;2023-06-14T04:03:08;10.10;1.00
1602;DHT22;794;48.592;9.634;2023-06-14T04:05:35;10.60;1.00
1602;DHT22;794;48.592;9.634;2023-06-14T04:08:03;9.40;1.00
1602;DHT22;794;48.592;9.634;2023-06-14T04:10:34;9.40;1.00
1602;DHT22;794;48.592;9.634;2023-06-14T04:13:02;9.50;1.00
1602;DHT22;794;48.592;9.634;2023-06-14T04:15:30;9.50;1.00
1602;DHT22;794;48.592;9.634;2023-06-14T04:17:57;9.60;1.00
1602;DHT22;794;48.592;9.634;2023-06-14T04:20:24;9.80;1.00
1602;DHT22;794;48.592;9.634;2023-06-14T04:22:51;9.80;1.00
1602;DHT22;794;48.592;9.634;2023-06-14T04:25:18;10.50;1.00
1602;DHT22;794;48.592;9.634;2023-06-14T04:27:46;9.80;1.00
1602;DHT22;794;48.592;9.634;2023-06-14T04:30:14;10.20;1.00
1602;DHT22;794;48.592;9.634;2023-06-14T04:32:42;11.50;1.00
1602;DHT22;794;48.592;9.634;2023-06-14T04:35:09;13.70;1.00
1602;DHT22;794;48.592;9.634;2023-06-14T04:37:36;15.80;1.00
1602;DHT22;794;48.592;9.634;2023-06-14T04:40:10;17.60;1.00
1602;DHT22;794;48.592;9.634;2023-06-14T04:42:37;19.20;1.00
1602;DHT22;794;48.592;9.634;2023-06-14T04:45:04;20.70;1.00
1602;DHT22;794;48.592;9.634;2023-06-14T04:47:34;21.60;1.00
1602;DHT22;794;48.592;9.634;2023-06-14T04:50:07;22.90;1.00
1602;DHT22;794;48.592;9.634;2023-06-14T04:52:34;23.80;1.00
1602;DHT22;794;48.592;9.634;2023-06-14T04:55:01;24.30;1.00
1602;DHT22;794;48.592;9.634;2023-06-14T04:57:28;24.90;1.00
1602;DHT22;794;48.592;9.634;2023-06-14T04:59:56;25.40;1.00
1602;DHT22;794;48.592;9.634;2023-06-14T05:02:23;26.00;1.00
1602;DHT22;794;48.592;9.634;2023-06-14T05:04:53;26.90;1.00
1602;DHT22;794;48.592;9.634;2023-06-14T05:07:22;26.90;1.00
1602;DHT22;794;48.592;9.634;2023-06-14T05:09:49;25.60;1.00
1602;DHT22;794;48.592;9.634;2023-06-14T05:12:16;23.60;1.00
1602;DHT22;794;48.592;9.634;2023-06-14T05:14:44;22.10;1.00
1602;DHT22;794;48.592;9.634;2023-06-14T05:17:11;20.50;1.00
1602;DHT22;794;48.592;9.634;2023-06-14T05:19:38;19.40;1.00
1602;DHT22;794;48.592;9.634;2023-06-14T05:22:07;18.60;1.00
1602;DHT22;794;48.592;9.634;2023-06-14T05:24:34;17.60;1.00
1602;DHT22;794;48.592;9.634;2023-06-14T05:27:01;17.20;1.00
1602;DHT22;794;48.592;9.634;2023-06-14T05:29:27;16.60;1.00
1602;DHT22;794;48.592;9.634;2023-06-14T05:31:54;16.30;1.00
1602;DHT22;794;48.592;9.634;2023-06-14T05:34:21;16.00;1.00
1602;DHT22;794;48.592;9.634;2023-06-14T05:36:48;15.80;1.00
1602;DHT22;794;48.592;9.634;2023-06-14T05:39:16;15.70;1.00
1602;DHT22;794;48.592;9.634;2023-06-14T05:41:43;15.70;1.00
1602;DHT22;794;48.592;9.634;2023-06-14T05:44:11;15.80;1.00
1602;DHT22;794;48.592;9.634;2023-06-14T05:46:38;15.20;1.00
1602;DHT22;794;48.592;9.634;2023-06-14T05:49:05;15.20;1.00
1602;DHT22;794;48.592;9.634;2023-06-14T05:51:32;15.30;1.00
1602;DHT22;794;48.592;9.634;2023-06-14T05:53:59;15.30;1.00
1602;DHT22;794;48.592;9.634;2023-06-14T05:56:27;15.40;1.00
1602;DHT22;794;48.592;9.634;2023-06-14T05:58:55;15.60;1.00
1602;DHT22;794;48.592;9.634;2023-06-14T06:01:22;15.60;1.00
1602;DHT22;794;48.592;9.634;2023-06-14T06:03:49;15.90;1.00
1602;DHT22;794;48.592;9.634;2023-06-14T06:06:15;15.90;1.00
1602;DHT22;794;48.592;9.634;2023-06-14T06:08:42;16.30;1.00
1602;DHT22;794;48.592;9.634;2023-06-14T06:11:09;18.60;1.00
1602;DHT22;794;48.592;9.634;2023-06-14T06:13:38;22.20;1.00
1602;DHT22;794;48.592;9.634;2023-06-14T06:16:06;24.90;1.00
1602;DHT22;794;48.592;9.634;2023-06-14T06:18:33;26.70;1.00
1602;DHT22;794;48.592;9.634;2023-06-14T06:21:00;25.80;1.00
1602;DHT22;794;48.592;9.634;2023-06-14T06:23:28;26.40;1.00
1602;DHT22;794;48.592;9.634;2023-06-14T06:25:55;28.10;1.00
1602;DHT22;794;48.592;9.634;2023-06-14T06:28:22;28.10;1.00
1602;DHT22;794;48.592;9.634;2023-06-14T06:30:50;29.80;1.00
1602;DHT22;794;48.592;9.634;2023-06-14T06:33:17;27.60;1.00
1602;DHT22;794;48.592;9.634;2023-06-14T06:35:44;28.10;1.00
1602;DHT22;794;48.592;9.634;2023-06-14T06:38:10;30.40;1.00
1602;DHT22;794;48.592;9.634;2023-06-14T06:40:37;31.10;1.00
1602;DHT22;794;48.592;9.634;2023-06-14T06:43:04;32.40;1.00
1602;DHT22;794;48.592;9.634;2023-06-14T06:45:31;32.50;1.00
1602;DHT22;794;48.592;9.634;2023-06-14T06:47:59;33.40;1.00
1602;DHT22;794;48.592;9.634;2023-06-14T06:50:27;34.60;1.00
1602;DHT22;794;48.592;9.634;2023-06-14T06:52:53;35.40;1.00
1602;DHT22;794;48.592;9.634;2023-06-14T06:55:20;32.50;1.00
1602;DHT22;794;48.592;9.634;2023-06-14T06:57:47;33.30;1.00
1602;DHT22;794;48.592;9.634;2023-06-14T07:00:16;30.40;1.00
1602;DHT22;794;48.592;9.634;2023-06-14T07:02:43;26.40;1.00
1602;DHT22;794;48.592;9.634;2023-06-14T07:05:12;27.40;1.00
1602;DHT22;794;48.592;9.634;2023-06-14T07:07:39;29.10;1.00
1602;DHT22;794;48.592;9.634;2023-06-14T07:10:06;30.10;1.00
1602;DHT22;794;48.592;9.634;2023-06-14T07:12:33;30.30;1.00
1602;DHT22;794;48.592;9.634;2023-06-14T07:15:05;31.70;1.00
1602;DHT22;794;48.592;9.634;2023-06-14T07:17:33;33.50;1.00
1602;DHT22;794;48.592;9.634;2023-06-14T07:20:01;29.70;1.00
1602;DHT22;794;48.592;9.634;2023-06-14T07:22:40;29.60;1.00
1602;DHT22;794;48.592;9.634;2023-06-14T07:25:11;32.10;1.00
1602;DHT22;794;48.592;9.634;2023-06-14T07:27:39;33.10;1.00
1602;DHT22;794;48.592;9.634;2023-06-14T07:30:07;34.00;1.00
1602;DHT22;794;48.592;9.634;2023-06-14T07:32:34;33.40;1.00
1602;DHT22;794;48.592;9.634;2023-06-14T07:35:01;34.40;1.00
1602;DHT22;794;48.592;9.634;2023-06-14T07:37:28;35.20;1.00
1602;DHT22;794;48.592;9.634;2023-06-14T07:40:18;35.90;1.00
1602;DHT22;794;48.592;9.634;2023-06-14T07:42:47;36.60;1.00
1602;DHT22;794;48.592;9.634;2023-06-14T07:50:09;32.00;1.00
1602;DHT22;794;48.592;9.634;2023-06-14T07:52:37;31.20;1.00
1602;DHT22;794;48.592;9.634;2023-06-14T07:55:04;32.40;1.00
1602;DHT22;794;48.592;9.634;2023-06-14T07:57:33;31.00;1.00
1602;DHT22;794;48.592;9.634;2023-06-14T08:00:00;31.40;1.00
1602;DHT22;794;48.592;9.634;2023-06-14T08:02:27;31.70;1.00
1602;DHT22;794;48.592;9.634;2023-06-14T08:04:54;31.80;1.00
1602;DHT22;794;48.592;9.634;2023-06-14T08:07:21;32.10;1.00
1602;DHT22;794;48.592;9.634;2023-06-14T08:09:48;32.70;1.00
1602;DHT22;794;48.592;9.634;2023-06-14T08:12:16;32.00;1.00
1602;DHT22;794;48.592;9.634;2023-06-14T08:14:44;32.50;1.00
1602;DHT22;794;48.592;9.634;2023-06-14T08:22:06;32.30;1.00
1602;DHT22;794;48.592;9.634;2023-06-14T08:24:33;32.30;1.00
1602;DHT22;794;48.592;9.634;2023-06-14T08:27:00;33.50;1.00
1602;DHT22;794;48.592;9.634;2023-06-14T08:29:27;33.70;1.00
1602;DHT22;794;48.592;9.634;2023-06-14T08:31:58;34.30;1.00
1602;DHT22;794;48.592;9.634;2023-06-14T08:36:52;33.10;1.00
1602;DHT22;794;48.592;9.634;2023-06-14T08:39:19;33.40;1.00
1602;DHT22;794;48.592;9.634;2023-06-14T08:41:47;33.00;1.00
1602;DHT22;794;48.592;9.634;2023-06-14T08:44:14;33.20;1.00
1602;DHT22;794;48.592;9.634;2023-06-14T08:46:42;33.70;1.00
1602;DHT22;794;48.592;9.634;2023-06-14T08:49:11;33.30;1.00
1602;DHT22;794;48.592;9.634;2023-06-14T08:51:39;32.20;1.00
1602;DHT22;794;48.592;9.634;2023-06-14T08:54:07;32.50;1.00
1602;DHT22;794;48.592;9.634;2023-06-14T08:56:34;34.40;1.00
1602;DHT22;794;48.592;9.634;2023-06-14T08:59:04;35.00;1.00
1602;DHT22;794;48.592;9.634;2023-06-14T09:01:34;34.70;1.00
1602;DHT22;794;48.592;9.634;2023-06-14T09:04:02;35.00;1.00
1602;DHT22;794;48.592;9.634;2023-06-14T09:06:32;35.00;1.00
1602;DHT22;794;48.592;9.634;2023-06-14T09:08:59;35.40;1.00
1602;DHT22;794;48.592;9.634;2023-06-14T09:11:26;35.30;1.00
1602;DHT22;794;48.592;9.634;2023-06-14T09:13:53;35.00;1.00
1602;DHT22;794;48.592;9.634;2023-06-14T09:16:20;34.50;1.00
1602;DHT22;794;48.592;9.634;2023-06-14T09:18:47;34.00;1.00
1602;DHT22;794;48.592;9.634;2023-06-14T09:21:16;33.70;1.00
1602;DHT22;794;48.592;9.634;2023-06-14T09:23:45;34.20;1.00
1602;DHT22;794;48.592;9.634;2023-06-14T09:26:14;33.80;1.00
1602;DHT22;794;48.592;9.634;2023-06-14T09:28:41;34.00;1.00
1602;DHT22;794;48.592;9.634;2023-06-14T09:31:10;33.50;1.00
1602;DHT22;794;48.592;9.634;2023-06-14T09:33:37;35.10;1.00
1602;DHT22;794;48.592;9.634;2023-06-14T09:36:04;34.20;1.00
1602;DHT22;794;48.592;9.634;2023-06-14T09:38:36;34.60;1.00
1602;DHT22;794;48.592;9.634;2023-06-14T09:41:04;34.20;1.00
1602;DHT22;794;48.592;9.634;2023-06-14T09:43:31;34.50;1.00
1602;DHT22;794;48.592;9.634;2023-06-14T09:46:00;33.30;1.00
1602;DHT22;794;48.592;9.634;2023-06-14T09:48:27;32.20;1.00
1602;DHT22;794;48.592;9.634;2023-06-14T09:50:55;33.50;1.00
1602;DHT22;794;48.592;9.634;2023-06-14T09:53:25;33.70;1.00
1602;DHT22;794;48.592;9.634;2023-06-14T09:55:52;31.70;1.00
1602;DHT22;794;48.592;9.634;2023-06-14T09:58:26;30.80;1.00
1602;DHT22;794;48.592;9.634;2023-06-14T10:00:55;31.50;1.00
1602;DHT22;794;48.592;9.634;2023-06-14T10:03:27;32.80;1.00
1602;DHT22;794;48.592;9.634;2023-06-14T10:05:55;31.70;1.00
1602;DHT22;794;48.592;9.634;2023-06-14T10:08:28;30.00;1.00
1602;DHT22;794;48.592;9.634;2023-06-14T10:10:58;29.10;1.00
1602;DHT22;794;48.592;9.634;2023-06-14T10:13:29;27.90;1.00
1602;DHT22;794;48.592;9.634;2023-06-14T10:16:15;27.40;1.00
1602;DHT22;794;48.592;9.634;2023-06-14T10:18:48;25.70;1.00
1602;DHT22;794;48.592;9.634;2023-06-14T10:21:21;25.20;1.00
1602;DHT22;794;48.592;9.634;2023-06-14T10:23:50;25.50;1.00
1602;DHT22;794;48.592;9.634;2023-06-14T10:26:20;24.90;1.00
1602;DHT22;794;48.592;9.634;2023-06-14T10:28:59;26.40;1.00
1602;DHT22;794;48.592;9.634;2023-06-14T10:31:43;27.40;1.00
1602;DHT22;794;48.592;9.634;2023-06-14T10:34:10;26.80;1.00
1602;DHT22;794;48.592;9.634;2023-06-14T10:36:42;26.40;1.00
1602;DHT22;794;48.592;9.634;2023-06-14T10:39:14;25.90;1.00
1602;DHT22;794;48.592;9.634;2023-06-14T10:41:50;26.10;1.00
1602;DHT22;794;48.592;9.634;2023-06-14T10:44:39;26.50;1.00
1602;DHT22;794;48.592;9.634;2023-06-14T10:47:07;26.60;1.00
1602;DHT22;794;48.592;9.634;2023-06-14T10:49:40;26.50;1.00
1602;DHT22;794;48.592;9.634;2023-06-14T10:52:15;24.10;1.00
1602;DHT22;794;48.592;9.634;2023-06-14T10:55:13;23.80;1.00
1602;DHT22;794;48.592;9.634;2023-06-14T10:57:42;23.70;1.00
1602;DHT22;794;48.592;9.634;2023-06-14T11:00:12;24.00;1.00
1602;DHT22;794;48.592;9.634;2023-06-14T11:05:49;24.90;1.00
1602;DHT22;794;48.592;9.634;2023-06-14T11:11:17;24.50;1.00
1602;DHT22;794;48.592;9.634;2023-06-14T11:13:45;24.30;1.00
1602;DHT22;794;48.592;9.634;2023-06-14T11:16:15;24.30;1.00
1602;DHT22;794;48.592;9.634;2023-06-14T11:18:42;22.60;1.00
1602;DHT22;794;48.592;9.634;2023-06-14T11:21:10;25.10;1.00
1602;DHT22;794;48.592;9.634;2023-06-14T11:23:37;24.70;1.00
1602;DHT22;794;48.592;9.634;2023-06-14T11:26:04;24.40;1.00
1602;DHT22;794;48.592;9.634;2023-06-14T11:28:39;24.20;1.00
1602;DHT22;794;48.592;9.634;2023-06-14T11:31:07;23.80;1.00
1602;DHT22;794;48.592;9.634;2023-06-14T11:33:35;24.00;1.00
1602;DHT22;794;48.592;9.634;2023-06-14T11:36:03;23.80;1.00
1602;DHT22;794;48.592;9.634;2023-06-14T11:38:30;23.50;1.00
1602;DHT22;794;48.592;9.634;2023-06-14T11:41:00;23.20;1.00
1602;DHT22;794;48.592;9.634;2023-06-14T11:43:27;23.00;1.00
1602;DHT22;794;48.592;9.634;2023-06-14T11:45:54;23.00;1.00
1602;DHT22;794;48.592;9.634;2023-06-14T11:48:21;22.90;1.00
1602;DHT22;794;48.592;9.634;2023-06-14T11:50:51;22.90;1.00
1602;DHT22;794;48.592;9.634;2023-06-14T11:53:18;23.30;1.00
1602;DHT22;794;48.592;9.634;2023-06-14T11:55:45;23.30;1.00
1602;DHT22;794;48.592;9.634;2023-06-14T11:58:13;23.20;1.00
1602;DHT22;794;48.592;9.634;2023-06-14T12:00:41;23.30;1.00
1602;DHT22;794;48.592;9.634;2023-06-14T12:03:08;23.40;1.00
1602;DHT22;794;48.592;9.634;2023-06-14T12:05:35;23.10;1.00
1602;DHT22;794;48.592;9.634;2023-06-14T12:08:09;23.60;1.00
1602;DHT22;794;48.592;9.634;2023-06-14T12:10:42;23.90;1.00
1602;DHT22;794;48.592;9.634;2023-06-14T12:13:09;23.90;1.00
1602;DHT22;794;48.592;9.634;2023-06-14T12:15:36;23.80;1.00
1602;DHT22;794;48.592;9.634;2023-06-14T12:18:05;23.50;1.00
1602;DHT22;794;48.592;9.634;2023-06-14T12:20:33;23.40;1.00
1602;DHT22;794;48.592;9.634;2023-06-14T12:23:03;23.60;1.00
1602;DHT22;794;48.592;9.634;2023-06-14T12:25:33;24.00;1.00
1602;DHT22;794;48.592;9.634;2023-06-14T12:28:05;24.20;1.00
1602;DHT22;794;48.592;9.634;2023-06-14T12:30:32;24.40;1.00
1602;DHT22;794;48.592;9.634;2023-06-14T12:33:00;24.70;1.00
1602;DHT22;794;48.592;9.634;2023-06-14T12:35:28;25.20;1.00
1602;DHT22;794;48.592;9.634;2023-06-14T12:37:58;23.90;1.00
1602;DHT22;794;48.592;9.634;2023-06-14T12:40:25;25.00;1.00
1602;DHT22;794;48.592;9.634;2023-06-14T12:42:53;24.50;1.00
1602;DHT22;794;48.592;9.634;2023-06-14T12:45:20;25.20;1.00
1602;DHT22;794;48.592;9.634;2023-06-14T12:47:48;24.60;1.00
1602;DHT22;794;48.592;9.634;2023-06-14T12:50:15;24.20;1.00
1602;DHT22;794;48.592;9.634;2023-06-14T12:52:42;24.40;1.00
1602;DHT22;794;48.592;9.634;2023-06-14T12:55:10;24.30;1.00
1602;DHT22;794;48.592;9.634;2023-06-14T12:57:36;23.80;1.00
1602;DHT22;794;48.592;9.634;2023-06-14T13:00:06;23.50;1.00
1602;DHT22;794;48.592;9.634;2023-06-14T13:02:33;23.50;1.00
1602;DHT22;794;48.592;9.634;2023-06-14T13:05:00;23.60;1.00
1602;DHT22;794;48.592;9.634;2023-06-14T13:07:29;22.10;1.00
1602;DHT22;794;48.592;9.634;2023-06-14T13:09:56;23.60;1.00
1602;DHT22;794;48.592;9.634;2023-06-14T13:12:23;23.50;1.00
1602;DHT22;794;48.592;9.634;2023-06-14T13:14:50;23.80;1.00
1602;DHT22;794;48.592;9.634;2023-06-14T13:17:19;23.40;1.00
1602;DHT22;794;48.592;9.634;2023-06-14T13:19:46;23.50;1.00
1602;DHT22;794;48.592;9.634;2023-06-14T13:22:12;23.40;1.00
1602;DHT22;794;48.592;9.634;2023-06-14T13:24:39;23.50;1.00
1602;DHT22;794;48.592;9.634;2023-06-14T13:27:06;23.80;1.00
1602;DHT22;794;48.592;9.634;2023-06-14T13:29:33;23.40;1.00
1602;DHT22;794;48.592;9.634;2023-06-14T13:32:01;23.50;1.00
1602;DHT22;794;48.592;9.634;2023-06-14T13:34:29;23.50;1.00
1602;DHT22;794;48.592;9.634;2023-06-14T13:36:56;23.70;1.00
1602;DHT22;794;48.592;9.634;2023-06-14T13:39:25;23.70;1.00
1602;DHT22;794;48.592;9.634;2023-06-14T13:41:52;23.70;1.00
1602;DHT22;794;48.592;9.634;2023-06-14T13:44:19;23.70;1.00
1602;DHT22;794;48.592;9.634;2023-06-14T13:46:46;24.30;1.00
1602;DHT22;794;48.592;9.634;2023-06-14T13:49:13;23.90;1.00
1602;DHT22;794;48.592;9.634;2023-06-14T13:51:42;23.80;1.00
1602;DHT22;794;48.592;9.634;2023-06-14T13:54:08;23.60;1.00
1602;DHT22;794;48.592;9.634;2023-06-14T13:56:35;23.60;1.00
1602;DHT22;794;48.592;9.634;2023-06-14T13:59:03;23.30;1.00
1602;DHT22;794;48.592;9.634;2023-06-14T14:01:30;23.30;1.00
1602;DHT22;794;48.592;9.634;2023-06-14T14:03:57;23.50;1.00
1602;DHT22;794;48.592;9.634;2023-06-14T14:06:24;23.50;1.00
1602;DHT22;794;48.592;9.634;2023-06-14T14:08:52;23.40;1.00
1602;DHT22;794;48.592;9.634;2023-06-14T14:11:19;23.40;1.00
1602;DHT22;794;48.592;9.634;2023-06-14T14:13:46;23.10;1.00
1602;DHT22;794;48.592;9.634;2023-06-14T14:16:13;23.10;1.00
1602;DHT22;794;48.592;9.634;2023-06-14T14:18:40;23.30;1.00
1602;DHT22;794;48.592;9.634;2023-06-14T14:21:07;23.50;1.00
1602;DHT22;794;48.592;9.634;2023-06-14T14:23:35;23.70;1.00
1602;DHT22;794;48.592;9.634;2023-06-14T14:26:03;23.90;1.00
1602;DHT22;794;48.592;9.634;2023-06-14T14:28:30;23.80;1.00
1602;DHT22;794;48.592;9.634;2023-06-14T14:30:58;23.70;1.00
1602;DHT22;794;48.592;9.634;2023-06-14T14:33:24;23.70;1.00
1602;DHT22;794;48.592;9.634;2023-06-14T14:35:51;23.70;1.00
1602;DHT22;794;48.592;9.634;2023-06-14T14:38:18;23.80;1.00
1602;DHT22;794;48.592;9.634;2023-06-14T14:40:45;23.60;1.00
1602;DHT22;794;48.592;9.634;2023-06-14T14:43:13;23.80;1.00
1602;DHT22;794;48.592;9.634;2023-06-14T14:45:41;23.80;1.00
1602;DHT22;794;48.592;9.634;2023-06-14T14:48:08;23.50;1.00
1602;DHT22;794;48.592;9.634;2023-06-14T14:50:34;23.80;1.00
1602;DHT22;794;48.592;9.634;2023-06-14T14:53:01;23.80;1.00
1602;DHT22;794;48.592;9.634;2023-06-14T14:55:28;23.60;1.00
1602;DHT22;794;48.592;9.634;2023-06-14T14:57:56;23.50;1.00
1602;DHT22;794;48.592;9.634;2023-06-14T15:00:24;23.40;1.00
1602;DHT22;794;48.592;9.634;2023-06-14T15:02:51;23.20;1.00
1602;DHT22;794;48.592;9.634;2023-06-14T15:05:18;23.60;1.00
1602;DHT22;794;48.592;9.634;2023-06-14T15:07:45;23.60;1.00
1602;DHT22;794;48.592;9.634;2023-06-14T15:10:12;23.70;1.00
1602;DHT22;794;48.592;9.634;2023-06-14T15:12:39;23.70;1.00
1602;DHT22;794;48.592;9.634;2023-06-14T15:15:06;23.50;1.00
1602;DHT22;794;48.592;9.634;2023-06-14T15:17:36;23.60;1.00
1602;DHT22;794;48.592;9.634;2023-06-14T15:20:04;23.60;1.00
1602;DHT22;794;48.592;9.634;2023-06-14T15:22:32;23.60;1.00
1602;DHT22;794;48.592;9.634;2023-06-14T15:24:59;23.50;1.00
1602;DHT22;794;48.592;9.634;2023-06-14T15:27:26;23.60;1.00
1602;DHT22;794;48.592;9.634;2023-06-14T15:29:53;23.40;1.00
1602;DHT22;794;48.592;9.634;2023-06-14T15:32:20;23.00;1.00
1602;DHT22;794;48.592;9.634;2023-06-14T15:34:48;22.80;1.00
1602;DHT22;794;48.592;9.634;2023-06-14T15:37:15;23.10;1.00
1602;DHT22;794;48.592;9.634;2023-06-14T15:39:42;23.20;1.00
1602;DHT22;794;48.592;9.634;2023-06-14T15:42:09;23.40;1.00
1602;DHT22;794;48.592;9.634;2023-06-14T15:44:37;23.50;1.00
1602;DHT22;794;48.592;9.634;2023-06-14T15:47:04;23.90;1.00
1602;DHT22;794;48.592;9.634;2023-06-14T15:49:31;24.00;1.00
1602;DHT22;794;48.592;9.634;2023-06-14T15:51:59;23.50;1.00
1602;DHT22;794;48.592;9.634;2023-06-14T15:54:26;22.80;1.00
1602;DHT22;794;48.592;9.634;2023-06-14T15:56:53;23.00;1.00
1602;DHT22;794;48.592;9.634;2023-06-14T15:59:20;23.00;1.00
1602;DHT22;794;48.592;9.634;2023-06-14T16:01:53;23.10;1.00
1602;DHT22;794;48.592;9.634;2023-06-14T16:04:20;23.70;1.00
1602;DHT22;794;48.592;9.634;2023-06-14T16:06:47;23.20;1.00
1602;DHT22;794;48.592;9.634;2023-06-14T16:09:15;23.10;1.00
1602;DHT22;794;48.592;9.634;2023-06-14T16:11:42;22.90;1.00
1602;DHT22;794;48.592;9.634;2023-06-14T16:14:09;22.80;1.00
1602;DHT22;794;48.592;9.634;2023-06-14T16:16:35;22.60;1.00
1602;DHT22;794;48.592;9.634;2023-06-14T16:19:02;22.60;1.00
1602;DHT22;794;48.592;9.634;2023-06-14T16:21:30;22.50;1.00
1602;DHT22;794;48.592;9.634;2023-06-14T16:23:59;22.30;1.00
1602;DHT22;794;48.592;9.634;2023-06-14T16:26:27;22.30;1.00
1602;DHT22;794;48.592;9.634;2023-06-14T16:28:54;22.00;1.00
1602;DHT22;794;48.592;9.634;2023-06-14T16:31:31;21.90;1.00
1602;DHT22;794;48.592;9.634;2023-06-14T16:34:00;21.90;1.00
1602;DHT22;794;48.592;9.634;2023-06-14T16:36:27;21.90;1.00
1602;DHT22;794;48.592;9.634;2023-06-14T16:38:54;21.90;1.00
1602;DHT22;794;48.592;9.634;2023-06-14T16:41:20;21.90;1.00
1602;DHT22;794;48.592;9.634;2023-06-14T16:43:49;21.70;1.00
1602;DHT22;794;48.592;9.634;2023-06-14T16:46:27;21.80;1.00
1602;DHT22;794;48.592;9.634;2023-06-14T16:48:55;21.50;1.00
1602;DHT22;794;48.592;9.634;2023-06-14T16:51:22;22.80;1.00
1602;DHT22;794;48.592;9.634;2023-06-14T16:53:49;21.80;1.00
1602;DHT22;794;48.592;9.634;2023-06-14T16:56:17;21.90;1.00
1602;DHT22;794;48.592;9.634;2023-06-14T16:58:43;22.10;1.00
1602;DHT22;794;48.592;9.634;2023-06-14T17:01:12;22.30;1.00